Time;durP1;ratioP1;P1;durP2;ratioP2;P2;SDS_P1;SDS_P2;PMS_P1;PMS_P2;Temp;Humidity;BMP_temperature;BMP_pressure;BME280_temperature;BME280_humidity;BME280_pressure;Samples;Min_cycle;Max_cycle;Signal;HPM_P1;HPM_P2
2022/07/09 00:01:57;;;;;;;2.20;1.10;;;23.90;47.90;;;;;;5004596;28;20083;-50
2022/07/09 00:04:23;;;;;;;2.95;1.20;;;23.90;47.90;;;;;;5005563;28;20014;-48
2022/07/09 00:06:49;;;;;;;2.55;1.00;;;23.90;47.90;;;;;;5036233;28;20054;-47
2022/07/09 00:09:14;;;;;;;1.60;0.73;;;23.90;47.90;;;;;;5008263;28;20061;-47
2022/07/09 00:11:40;;;;;;;2.20;1.00;;;23.90;47.80;;;;;;5019854;28;20049;-48
2022/07/09 00:14:06;;;;;;;2.55;1.00;;;23.90;47.80;;;;;;5020107;28;20125;-50
2022/07/09 00:16:32;;;;;;;2.17;0.90;;;23.90;47.80;;;;;;5004249;28;20085;-49
2022/07/09 00:18:57;;;;;;;1.80;0.80;;;23.90;47.80;;;;;;5004427;28;20493;-48
2022/07/09 00:21:23;;;;;;;2.28;0.80;;;23.90;48.00;;;;;;5004504;28;20022;-49
2022/07/09 00:23:49;;;;;;;2.80;1.17;;;23.90;48.00;;;;;;5004345;28;20026;-48
2022/07/09 00:26:15;;;;;;;1.75;0.90;;;23.90;48.00;;;;;;5003762;28;20024;-49
2022/07/09 00:28:41;;;;;;;1.95;0.90;;;23.90;48.00;;;;;;5004647;28;20033;-48
2022/07/09 00:31:07;;;;;;;3.10;1.15;;;23.90;48.10;;;;;;5004371;28;20080;-48
2022/07/09 00:33:33;;;;;;;2.15;0.90;;;23.90;48.10;;;;;;5004305;28;20030;-46
2022/07/09 00:35:59;;;;;;;1.65;0.90;;;23.90;48.10;;;;;;5004486;28;20022;-48
2022/07/09 00:38:24;;;;;;;3.75;1.20;;;23.90;48.00;;;;;;5003861;28;20034;-48
2022/07/09 00:40:50;;;;;;;2.17;1.10;;;23.90;48.10;;;;;;5003897;28;20030;-47
2022/07/09 00:43:20;;;;;;;2.53;1.23;;;23.90;48.00;;;;;;5003719;28;20034;-49
2022/07/09 00:45:46;;;;;;;2.55;0.75;;;23.90;48.10;;;;;;5003950;28;20025;-49
2022/07/09 00:48:14;;;;;;;2.58;1.20;;;23.90;48.00;;;;;;5004205;28;20453;-49
2022/07/09 00:50:41;;;;;;;3.50;1.48;;;23.90;48.00;;;;;;5004324;28;20522;-47
2022/07/09 00:53:10;;;;;;;3.13;0.95;;;23.90;47.70;;;;;;5003868;28;20033;-49
2022/07/09 00:55:37;;;;;;;2.42;1.10;;;23.90;47.70;;;;;;5003771;28;20502;-48
2022/07/09 00:58:03;;;;;;;1.73;0.82;;;23.90;47.80;;;;;;5002628;28;20045;-48
2022/07/09 01:00:29;;;;;;;2.25;1.20;;;23.90;47.70;;;;;;5003955;28;20084;-51
2022/07/09 01:02:55;;;;;;;1.85;0.98;;;23.90;47.70;;;;;;5035015;28;20021;-47
2022/07/09 01:05:21;;;;;;;1.90;0.88;;;23.90;47.60;;;;;;5003338;28;20566;-48
2022/07/09 01:07:47;;;;;;;3.13;1.25;;;23.90;47.70;;;;;;5004135;28;20034;-47
2022/07/09 01:10:12;;;;;;;2.47;1.10;;;23.90;47.70;;;;;;5015453;28;20060;-48
2022/07/09 01:12:38;;;;;;;2.13;1.10;;;23.90;47.80;;;;;;5012798;28;20109;-49
2022/07/09 01:15:06;;;;;;;1.85;0.98;;;23.90;47.90;;;;;;5003367;28;20029;-47
2022/07/09 01:17:41;;;;;;;2.88;1.10;;;23.90;47.90;;;;;;5003185;28;20754;-47
2022/07/09 01:20:07;;;;;;;2.45;1.02;;;23.90;47.90;;;;;;5003878;28;20038;-48
2022/07/09 01:22:34;;;;;;;2.25;1.08;;;23.90;48.00;;;;;;5003834;28;20021;-48
2022/07/09 01:25:04;;;;;;;2.10;1.02;;;23.90;47.90;;;;;;5002897;28;20041;-47
2022/07/09 01:27:30;;;;;;;2.10;0.98;;;23.90;48.00;;;;;;5003067;28;20041;-50
2022/07/09 01:29:56;;;;;;;1.88;1.00;;;23.90;48.00;;;;;;5002966;28;20041;-48
2022/07/09 01:32:21;;;;;;;1.85;1.00;;;23.90;48.00;;;;;;5003634;28;20034;-47
2022/07/09 01:34:47;;;;;;;2.15;1.05;;;23.90;48.00;;;;;;5003538;28;20116;-48
2022/07/09 01:37:13;;;;;;;3.28;1.00;;;23.90;48.00;;;;;;5002626;28;20036;-50
2022/07/09 01:39:49;;;;;;;2.13;1.00;;;23.90;47.90;;;;;;5001715;28;20038;-48
2022/07/09 01:42:16;;;;;;;2.05;1.10;;;23.90;48.00;;;;;;5003181;28;20701;-50
2022/07/09 01:44:42;;;;;;;2.28;1.10;;;23.90;47.90;;;;;;5003517;28;20115;-48
2022/07/09 01:47:08;;;;;;;2.42;1.02;;;23.90;47.80;;;;;;5002772;28;20089;-48
2022/07/09 01:49:33;;;;;;;2.78;1.00;;;23.80;47.70;;;;;;5003546;28;20692;-47
2022/07/09 01:51:59;;;;;;;2.47;1.02;;;23.80;47.60;;;;;;5002772;28;20057;-50
2022/07/09 01:54:25;;;;;;;1.63;0.70;;;23.80;47.60;;;;;;5003025;28;20163;-46
2022/07/09 01:56:50;;;;;;;1.80;0.90;;;23.80;47.60;;;;;;5002867;28;20685;-47
2022/07/09 01:59:16;;;;;;;2.45;1.13;;;23.90;47.70;;;;;;5002824;28;20029;-48
2022/07/09 02:01:42;;;;;;;1.95;1.13;;;23.80;47.60;;;;;;5002572;28;20026;-49
2022/07/09 02:04:08;;;;;;;2.20;0.98;;;23.80;47.70;;;;;;5002982;28;20044;-49
2022/07/09 02:06:33;;;;;;;1.60;0.90;;;23.80;47.80;;;;;;5003012;28;20156;-49
2022/07/09 02:08:59;;;;;;;1.95;0.90;;;23.80;47.80;;;;;;5004677;28;20248;-50
2022/07/09 02:11:25;;;;;;;3.20;1.10;;;23.80;47.80;;;;;;5022419;28;20064;-48
2022/07/09 02:13:50;;;;;;;1.83;1.00;;;23.80;47.80;;;;;;4999805;28;20188;-48
2022/07/09 02:16:16;;;;;;;2.08;0.88;;;23.80;47.90;;;;;;4987238;28;20030;-49
2022/07/09 02:18:41;;;;;;;2.13;0.90;;;23.80;47.90;;;;;;4986154;28;20025;-49
2022/07/09 02:21:07;;;;;;;2.40;1.02;;;23.80;47.90;;;;;;4987645;28;20030;-48
2022/07/09 02:23:33;;;;;;;2.25;0.98;;;23.80;47.90;;;;;;4987032;28;20019;-48
2022/07/09 02:25:59;;;;;;;2.00;0.98;;;23.80;47.90;;;;;;4993032;28;20022;-47
2022/07/09 02:28:24;;;;;;;2.33;1.10;;;23.80;48.00;;;;;;5006725;28;20034;-48
2022/07/09 02:30:50;;;;;;;2.70;1.20;;;23.80;47.90;;;;;;5006879;28;20573;-48
2022/07/09 02:33:16;;;;;;;1.45;0.80;;;23.80;47.90;;;;;;5006711;28;20036;-48
2022/07/09 02:35:42;;;;;;;2.75;0.98;;;23.80;47.90;;;;;;5006430;28;20444;-48
2022/07/09 02:38:08;;;;;;;1.80;0.80;;;23.80;47.90;;;;;;5006055;28;20048;-49
2022/07/09 02:40:34;;;;;;;3.50;0.90;;;23.90;47.80;;;;;;5006723;28;20029;-47
2022/07/09 02:43:00;;;;;;;2.65;1.02;;;23.80;47.70;;;;;;5006478;28;20034;-46
2022/07/09 02:45:26;;;;;;;2.80;1.00;;;23.80;47.70;;;;;;5005510;28;20029;-49
2022/07/09 02:47:51;;;;;;;2.55;1.10;;;23.80;47.70;;;;;;5005969;28;20034;-49
2022/07/09 02:50:17;;;;;;;1.95;1.00;;;23.80;47.60;;;;;;5006531;28;20493;-50
2022/07/09 02:52:42;;;;;;;1.88;0.88;;;23.80;47.70;;;;;;5006504;28;20044;-48
2022/07/09 02:55:08;;;;;;;2.60;1.02;;;23.80;47.70;;;;;;5005849;28;20520;-48
2022/07/09 02:57:34;;;;;;;2.05;1.00;;;23.80;47.70;;;;;;5005834;28;20548;-50
2022/07/09 03:00:00;;;;;;;2.03;0.80;;;23.80;47.70;;;;;;5005762;28;20022;-49
2022/07/09 03:02:25;;;;;;;2.45;1.02;;;23.80;47.80;;;;;;5006387;28;20028;-48
2022/07/09 03:04:51;;;;;;;2.83;0.82;;;23.80;47.80;;;;;;5006495;28;20034;-49
2022/07/09 03:07:17;;;;;;;2.00;0.90;;;23.80;47.80;;;;;;5005957;28;20088;-48
2022/07/09 03:09:43;;;;;;;1.92;0.90;;;23.80;47.90;;;;;;5021080;28;20826;-48
2022/07/09 03:12:09;;;;;;;3.13;1.02;;;23.80;47.80;;;;;;5005884;28;20530;-49
2022/07/09 03:14:34;;;;;;;1.75;0.80;;;23.80;47.80;;;;;;5006389;28;20069;-50
2022/07/09 03:17:00;;;;;;;2.28;1.00;;;23.80;47.80;;;;;;5005579;28;20026;-47
2022/07/09 03:19:26;;;;;;;1.63;0.80;;;23.80;47.80;;;;;;5005561;28;20036;-49
2022/07/09 03:21:51;;;;;;;0.90;0.60;;;23.80;47.80;;;;;;5005157;28;20470;-48
2022/07/09 03:24:17;;;;;;;1.63;0.73;;;23.80;47.80;;;;;;5005423;28;20026;-48
2022/07/09 03:26:43;;;;;;;3.13;1.20;;;23.80;47.70;;;;;;5005030;28;20034;-48
2022/07/09 03:29:08;;;;;;;1.80;0.80;;;23.80;47.70;;;;;;5005336;28;20033;-50
2022/07/09 03:31:34;;;;;;;2.22;0.90;;;23.80;47.70;;;;;;5005564;28;20061;-48
2022/07/09 03:34:00;;;;;;;2.25;0.80;;;23.70;47.70;;;;;;5005400;28;20025;-49
2022/07/09 03:36:25;;;;;;;2.17;0.98;;;23.80;47.60;;;;;;5005362;28;20125;-48
2022/07/09 03:38:51;;;;;;;1.17;0.75;;;23.80;47.60;;;;;;5005976;28;20049;-48
2022/07/09 03:41:17;;;;;;;2.10;0.80;;;23.80;47.60;;;;;;5025068;28;20022;-48
2022/07/09 03:43:43;;;;;;;2.08;0.85;;;23.80;47.60;;;;;;5008272;28;20040;-48
2022/07/09 03:46:09;;;;;;;2.17;1.13;;;23.80;47.70;;;;;;5004762;28;20100;-48
2022/07/09 03:48:35;;;;;;;2.28;1.00;;;23.80;47.70;;;;;;5005217;28;20434;-48
2022/07/09 03:51:00;;;;;;;2.08;0.98;;;23.80;47.70;;;;;;5005191;28;20034;-49
2022/07/09 03:53:26;;;;;;;2.15;1.00;;;23.80;47.70;;;;;;5004742;28;20044;-47
2022/07/09 03:55:51;;;;;;;3.40;1.08;;;23.80;47.70;;;;;;5004859;28;20426;-48
2022/07/09 03:58:17;;;;;;;1.92;0.82;;;23.70;47.70;;;;;;5004811;28;20643;-50
2022/07/09 04:00:43;;;;;;;2.33;1.00;;;23.80;47.70;;;;;;5004897;28;20112;-49
2022/07/09 04:03:08;;;;;;;1.67;0.80;;;23.80;47.70;;;;;;5004847;28;20468;-46
2022/07/09 04:05:34;;;;;;;2.33;1.10;;;23.80;47.70;;;;;;5004542;28;20026;-46
2022/07/09 04:08:00;;;;;;;1.70;0.80;;;23.70;47.70;;;;;;5004768;28;20038;-47
2022/07/09 04:10:26;;;;;;;2.22;0.80;;;23.80;47.70;;;;;;5018338;28;20040;-46
2022/07/09 04:12:52;;;;;;;3.42;1.00;;;23.70;47.70;;;;;;5015579;28;20026;-46
2022/07/09 04:15:17;;;;;;;2.30;0.95;;;23.70;47.70;;;;;;5003733;28;20037;-46
2022/07/09 04:17:43;;;;;;;1.75;0.90;;;23.70;47.70;;;;;;5004467;28;20084;-46
2022/07/09 04:20:09;;;;;;;2.55;0.93;;;23.70;47.60;;;;;;5003035;28;20029;-46
2022/07/09 04:22:35;;;;;;;1.90;0.98;;;23.80;47.60;;;;;;5004896;28;20022;-46
2022/07/09 04:25:01;;;;;;;2.28;0.80;;;23.70;47.60;;;;;;5003802;28;20048;-46
2022/07/09 04:27:27;;;;;;;1.73;0.90;;;23.70;47.60;;;;;;5003940;28;20030;-46
2022/07/09 04:29:53;;;;;;;1.98;0.90;;;23.70;47.60;;;;;;5004343;28;20053;-46
2022/07/09 04:32:19;;;;;;;2.50;0.75;;;23.70;47.60;;;;;;5004473;28;20115;-46
2022/07/09 04:34:45;;;;;;;2.38;0.88;;;23.70;47.60;;;;;;5004237;28;20104;-46
2022/07/09 04:37:10;;;;;;;1.85;0.93;;;23.70;47.60;;;;;;5003091;28;20029;-46
2022/07/09 04:39:36;;;;;;;2.13;1.05;;;23.70;47.70;;;;;;5003706;28;20030;-46
2022/07/09 04:42:02;;;;;;;2.30;0.98;;;23.70;47.70;;;;;;5003733;28;20029;-46
2022/07/09 04:44:28;;;;;;;2.33;0.93;;;23.70;47.70;;;;;;5003621;28;20034;-47
2022/07/09 04:46:53;;;;;;;1.83;0.80;;;23.70;47.70;;;;;;5003568;28;20029;-47
2022/07/09 04:49:20;;;;;;;1.85;0.82;;;23.70;47.80;;;;;;5003516;28;20033;-46
2022/07/09 04:51:46;;;;;;;1.80;0.80;;;23.70;47.80;;;;;;5003588;28;20069;-46
2022/07/09 04:54:12;;;;;;;2.85;1.10;;;23.70;47.80;;;;;;5003653;28;20062;-47
2022/07/09 04:56:37;;;;;;;1.77;0.70;;;23.70;47.80;;;;;;5003855;28;20026;-46
2022/07/09 04:59:03;;;;;;;2.75;1.23;;;23.70;47.80;;;;;;5003088;28;20100;-46
2022/07/09 05:01:29;;;;;;;1.98;1.00;;;23.70;47.80;;;;;;5003609;28;20022;-46
2022/07/09 05:03:56;;;;;;;2.03;0.90;;;23.70;47.90;;;;;;5003714;28;20026;-46
2022/07/09 05:06:22;;;;;;;2.13;1.05;;;23.70;47.90;;;;;;5003331;28;20033;-46
2022/07/09 05:08:47;;;;;;;1.98;1.20;;;23.70;48.00;;;;;;5004383;28;20033;-45
2022/07/09 05:11:13;;;;;;;2.55;0.90;;;23.70;48.10;;;;;;5023475;28;20095;-46
2022/07/09 05:13:42;;;;;;;2.25;0.82;;;23.70;48.10;;;;;;5008324;28;20030;-46
2022/07/09 05:16:08;;;;;;;2.30;1.02;;;23.70;48.20;;;;;;5034658;28;20057;-47
2022/07/09 05:18:35;;;;;;;2.50;1.20;;;23.70;48.20;;;;;;5003537;28;20572;-46
2022/07/09 05:21:01;;;;;;;2.20;0.90;;;23.70;48.20;;;;;;5003655;28;20038;-46
2022/07/09 05:23:26;;;;;;;1.92;0.75;;;23.70;48.20;;;;;;5003349;28;20105;-46
2022/07/09 05:25:53;;;;;;;2.30;0.70;;;23.70;48.20;;;;;;5002793;28;20061;-46
2022/07/09 05:28:19;;;;;;;3.03;1.10;;;23.70;48.20;;;;;;5002988;28;20096;-46
2022/07/09 05:30:44;;;;;;;1.58;0.70;;;23.70;48.30;;;;;;5003500;28;20058;-46
2022/07/09 05:33:10;;;;;;;2.42;1.00;;;23.70;48.30;;;;;;5003261;28;20522;-46
2022/07/09 05:35:36;;;;;;;1.52;0.80;;;23.70;48.20;;;;;;5002691;28;20057;-47
2022/07/09 05:38:02;;;;;;;1.65;0.80;;;23.70;48.20;;;;;;5002454;28;20116;-47
2022/07/09 05:40:28;;;;;;;4.28;1.02;;;23.70;48.90;;;;;;5015125;28;20102;-47
2022/07/09 05:42:54;;;;;;;1.88;0.93;;;23.70;48.30;;;;;;5015234;28;20097;-46
2022/07/09 05:45:19;;;;;;;1.85;0.88;;;23.70;48.20;;;;;;5001667;28;20675;-47
2022/07/09 05:47:45;;;;;;;2.33;0.90;;;23.70;48.30;;;;;;5001490;28;20044;-46
2022/07/09 05:50:11;;;;;;;3.03;1.10;;;23.70;48.30;;;;;;4998835;28;20062;-47
2022/07/09 05:52:37;;;;;;;2.70;1.20;;;23.70;48.50;;;;;;5001075;28;20398;-47
2022/07/09 05:55:03;;;;;;;2.55;1.15;;;23.70;48.50;;;;;;5001511;28;20026;-47
2022/07/09 05:57:29;;;;;;;3.17;1.15;;;23.70;48.40;;;;;;5000150;28;20033;-48
2022/07/09 05:59:55;;;;;;;2.20;1.05;;;23.80;48.20;;;;;;4989500;28;20028;-46
2022/07/09 06:02:21;;;;;;;2.15;0.80;;;23.70;47.70;;;;;;4990245;28;20048;-46
2022/07/09 06:04:47;;;;;;;2.75;1.17;;;23.70;47.00;;;;;;4998266;28;20057;-46
2022/07/09 06:07:13;;;;;;;3.83;1.23;;;23.70;47.30;;;;;;4998968;28;20375;-48
2022/07/09 06:09:39;;;;;;;2.70;1.05;;;23.70;47.60;;;;;;5002362;28;20088;-46
2022/07/09 06:12:04;;;;;;;2.75;1.25;;;23.70;47.70;;;;;;5002034;28;20028;-47
2022/07/09 06:14:30;;;;;;;2.40;0.80;;;23.60;47.20;;;;;;5002311;28;20040;-47
2022/07/09 06:16:56;;;;;;;2.28;1.00;;;23.60;47.40;;;;;;5001660;28;20076;-47
2022/07/09 06:19:23;;;;;;;3.53;1.45;;;23.60;47.60;;;;;;4997457;28;20065;-46
2022/07/09 06:21:48;;;;;;;5.47;1.20;;;23.60;46.80;;;;;;4999743;28;20168;-46
2022/07/09 06:24:14;;;;;;;3.58;1.50;;;23.60;48.10;;;;;;4997384;28;20619;-46
2022/07/09 06:26:40;;;;;;;4.38;1.45;;;23.50;48.10;;;;;;4998078;28;20426;-46
2022/07/09 06:29:05;;;;;;;8.10;2.33;;;23.50;48.30;;;;;;4998790;28;20466;-46
2022/07/09 06:31:31;;;;;;;3.47;1.38;;;23.60;48.90;;;;;;5000946;28;20525;-46
2022/07/09 06:33:58;;;;;;;5.63;1.65;;;23.60;48.70;;;;;;5001163;28;20030;-46
2022/07/09 06:36:23;;;;;;;2.55;1.08;;;23.60;48.60;;;;;;5001682;28;20121;-46
2022/07/09 06:41:33;;;;;;;3.10;1.10;;;23.50;48.00;;;;;;5021368;28;20232;-46
2022/07/09 06:43:59;;;;;;;2.45;1.00;;;23.50;48.20;;;;;;5004815;28;20109;-47
2022/07/09 06:46:25;;;;;;;3.00;1.00;;;23.50;48.10;;;;;;5000561;28;20053;-46
2022/07/09 06:48:50;;;;;;;2.38;1.13;;;23.50;47.30;;;;;;5001722;28;20674;-46
2022/07/09 06:51:16;;;;;;;2.47;1.10;;;23.50;48.20;;;;;;5016392;28;20095;-46
2022/07/09 06:53:41;;;;;;;2.83;1.00;;;23.50;48.20;;;;;;5001772;28;20072;-46
2022/07/09 06:56:07;;;;;;;5.07;1.30;;;23.60;48.30;;;;;;5002028;28;20384;-46
2022/07/09 06:58:33;;;;;;;5.30;1.50;;;23.60;48.10;;;;;;4998170;28;20297;-46
2022/07/09 07:00:58;;;;;;;2.03;0.80;;;23.60;48.20;;;;;;5003269;28;20026;-46
2022/07/09 07:03:24;;;;;;;4.13;1.30;;;23.60;48.10;;;;;;5002666;28;20022;-46
2022/07/09 07:05:50;;;;;;;2.00;0.80;;;23.60;47.80;;;;;;5004898;28;20030;-46
2022/07/09 07:08:17;;;;;;;2.63;1.00;;;23.60;47.70;;;;;;5004684;28;20038;-46
2022/07/09 07:10:43;;;;;;;2.15;0.90;;;23.60;47.60;;;;;;5022022;28;20033;-46
2022/07/09 07:13:10;;;;;;;3.30;1.10;;;23.60;48.10;;;;;;5016230;28;20108;-46
2022/07/09 07:15:36;;;;;;;3.28;1.00;;;23.60;47.40;;;;;;5004998;28;20026;-46
2022/07/09 07:18:02;;;;;;;3.75;1.45;;;23.60;47.30;;;;;;5004220;28;20030;-47
2022/07/09 07:20:27;;;;;;;1.90;0.90;;;23.60;47.30;;;;;;5004463;28;20127;-46
2022/07/09 07:22:53;;;;;;;2.25;0.80;;;23.60;47.20;;;;;;5004952;28;20030;-46
2022/07/09 07:25:19;;;;;;;2.75;1.20;;;23.60;47.30;;;;;;5004141;28;20057;-46
2022/07/09 07:27:44;;;;;;;2.85;1.17;;;23.60;47.00;;;;;;5003637;28;20081;-47
2022/07/09 07:30:10;;;;;;;3.08;0.95;;;23.60;46.90;;;;;;5002274;28;20056;-46
2022/07/09 07:32:36;;;;;;;3.28;1.10;;;23.60;47.40;;;;;;5004869;28;20470;-46
2022/07/09 07:35:02;;;;;;;2.50;0.90;;;23.70;46.50;;;;;;5005219;28;20044;-46
2022/07/09 07:37:28;;;;;;;4.30;1.02;;;23.70;46.40;;;;;;5004358;28;20029;-46
2022/07/09 07:39:54;;;;;;;3.92;1.15;;;23.60;45.10;;;;;;4993680;28;20433;-47
2022/07/09 07:42:20;;;;;;;1.40;0.77;;;23.60;46.50;;;;;;5005729;28;20151;-46
2022/07/09 07:44:45;;;;;;;2.08;0.70;;;23.60;46.00;;;;;;5004014;28;20474;-46
2022/07/09 07:47:11;;;;;;;3.08;1.13;;;23.60;45.70;;;;;;4995466;28;20490;-46
2022/07/09 07:49:36;;;;;;;3.08;0.90;;;23.50;45.90;;;;;;4998123;28;20419;-46
2022/07/09 07:52:03;;;;;;;3.38;1.05;;;23.50;45.40;;;;;;4999455;28;20516;-46
2022/07/09 07:54:28;;;;;;;3.30;1.15;;;23.50;44.40;;;;;;4997708;28;20046;-47
2022/07/09 07:56:54;;;;;;;2.35;0.85;;;23.50;44.70;;;;;;4998929;28;20026;-46
2022/07/09 07:59:20;;;;;;;2.67;0.90;;;23.50;44.60;;;;;;4996715;28;20030;-46
2022/07/09 08:01:45;;;;;;;2.92;1.20;;;23.40;44.90;;;;;;5000486;28;20510;-47
2022/07/09 08:04:11;;;;;;;3.47;1.10;;;23.30;45.30;;;;;;5003424;28;20022;-46
2022/07/09 08:06:37;;;;;;;3.60;1.05;;;23.30;46.20;;;;;;5004263;28;20109;-46
2022/07/09 08:09:03;;;;;;;3.45;1.00;;;23.20;44.70;;;;;;5004082;28;20029;-47
2022/07/09 08:11:29;;;;;;;3.05;1.05;;;23.20;45.70;;;;;;4998514;28;20402;-48
2022/07/09 08:13:55;;;;;;;2.05;1.00;;;23.20;45.80;;;;;;5001543;28;20044;-47
2022/07/09 08:16:20;;;;;;;3.67;1.20;;;23.20;46.90;;;;;;5004206;28;20375;-49
2022/07/09 08:18:47;;;;;;;2.40;0.93;;;23.20;46.50;;;;;;5003996;28;20586;-48
2022/07/09 08:21:12;;;;;;;2.58;1.13;;;23.20;46.60;;;;;;5001648;28;20034;-48
2022/07/09 08:23:54;;;;;;;3.00;1.20;;;23.30;46.00;;;;;;4984173;28;20113;-48
2022/07/09 08:26:27;;;;;;;2.88;1.30;;;23.20;44.30;;;;;;4984081;28;20105;-47
2022/07/09 08:28:53;;;;;;;3.00;0.90;;;23.20;44.80;;;;;;4996962;28;20704;-47
2022/07/09 08:31:20;;;;;;;3.17;0.90;;;23.10;45.30;;;;;;5003558;28;20113;-48
2022/07/09 08:33:46;;;;;;;1.90;0.90;;;23.10;46.60;;;;;;5002435;28;20042;-48
2022/07/09 08:36:12;;;;;;;4.53;1.35;;;23.20;45.90;;;;;;5003451;28;20083;-47
2022/07/09 08:38:38;;;;;;;3.25;1.20;;;23.20;46.40;;;;;;5003715;28;20038;-49
2022/07/09 08:41:05;;;;;;;3.30;0.98;;;23.20;46.20;;;;;;5022786;28;20037;-46
2022/07/09 08:43:36;;;;;;;2.67;1.00;;;23.20;45.00;;;;;;5007750;28;20081;-47
2022/07/09 08:46:02;;;;;;;2.55;0.93;;;23.20;45.10;;;;;;5002878;28;20037;-49
2022/07/09 08:48:32;;;;;;;2.70;1.17;;;23.20;43.90;;;;;;5002873;28;20034;-47
2022/07/09 08:50:58;;;;;;;3.13;0.90;;;23.20;44.40;;;;;;5004009;28;20037;-47
2022/07/09 08:53:27;;;;;;;3.22;0.82;;;23.10;43.90;;;;;;4999827;28;20037;-47
2022/07/09 08:55:54;;;;;;;2.70;1.10;;;23.10;44.50;;;;;;5000663;28;20037;-49
2022/07/09 08:58:20;;;;;;;1.55;0.70;;;23.10;45.50;;;;;;4994313;28;20030;-47
2022/07/09 09:00:50;;;;;;;1.92;0.70;;;23.10;45.80;;;;;;4999499;28;20033;-48
2022/07/09 09:03:17;;;;;;;2.13;0.90;;;23.20;45.20;;;;;;5001190;28;20033;-47
2022/07/09 09:05:43;;;;;;;1.77;0.82;;;23.20;45.50;;;;;;5002081;28;20548;-46
2022/07/09 09:08:24;;;;;;;2.17;0.95;;;23.20;46.10;;;;;;5003178;28;20110;-47
2022/07/09 09:10:50;;;;;;;2.55;0.93;;;23.20;43.30;;;;;;5001822;28;20085;-47
2022/07/09 09:13:16;;;;;;;3.63;1.48;;;23.20;44.70;;;;;;5003793;28;20137;-46
2022/07/09 09:15:43;;;;;;;2.10;0.80;;;23.20;44.50;;;;;;5001280;28;20029;-46
2022/07/09 09:18:09;;;;;;;2.38;1.25;;;23.20;44.20;;;;;;4113444;28;10001194;-46
2022/07/09 09:20:34;;;;;;;5.22;1.65;;;23.20;45.00;;;;;;4117257;28;10000992;-47
2022/07/09 09:23:02;;;;;;;2.72;1.58;;;23.30;44.20;;;;;;5000026;28;20169;-46
2022/07/09 09:25:28;;;;;;;2.70;1.40;;;23.30;42.90;;;;;;4998770;28;20018;-47
2022/07/09 09:27:58;;;;;;;2.92;1.45;;;23.30;43.00;;;;;;5001026;28;20712;-47
2022/07/09 09:30:26;;;;;;;3.40;1.63;;;23.30;44.50;;;;;;5002869;28;20439;-47
2022/07/09 09:32:59;;;;;;;2.83;1.77;;;23.30;43.00;;;;;;5003459;28;20034;-48
2022/07/09 09:35:30;;;;;;;4.00;2.20;;;23.20;42.10;;;;;;5003143;28;20029;-47
2022/07/09 09:37:56;;;;;;;3.65;2.22;;;23.20;42.60;;;;;;5002625;28;20045;-47
2022/07/09 09:40:23;;;;;;;3.67;1.60;;;23.20;42.20;;;;;;5002152;28;20038;-47
2022/07/09 09:42:50;;;;;;;2.38;1.42;;;23.10;43.30;;;;;;5002481;28;20945;-47
2022/07/09 09:45:16;;;;;;;3.55;1.90;;;23.20;44.20;;;;;;5002819;28;20030;-48
2022/07/09 09:47:47;;;;;;;2.67;1.60;;;23.20;43.80;;;;;;5003017;28;20026;-48
2022/07/09 09:50:19;;;;;;;4.05;1.77;;;23.20;43.60;;;;;;5002686;28;20042;-47
2022/07/09 09:52:49;;;;;;;4.05;2.15;;;23.20;44.00;;;;;;5002385;28;20116;-46
2022/07/09 09:55:16;;;;;;;3.60;2.15;;;23.30;42.20;;;;;;4999649;28;20564;-46
2022/07/09 09:57:42;;;;;;;4.65;1.80;;;23.30;42.70;;;;;;5017614;28;20026;-46
2022/07/09 10:00:10;;;;;;;3.67;1.95;;;23.30;43.60;;;;;;5002546;28;20049;-46
2022/07/09 10:02:40;;;;;;;2.88;1.40;;;23.30;42.20;;;;;;5001910;28;20029;-47
2022/07/09 10:05:06;;;;;;;4.07;1.73;;;23.30;40.80;;;;;;5001333;28;20212;-46
2022/07/09 10:07:33;;;;;;;3.17;1.85;;;23.30;43.50;;;;;;5002583;28;20474;-45
2022/07/09 10:09:58;;;;;;;3.55;1.70;;;23.30;44.10;;;;;;5011109;28;20104;-45
2022/07/09 10:12:32;;;;;;;4.20;1.73;;;23.30;42.70;;;;;;5020777;28;20205;-46
2022/07/09 10:14:58;;;;;;;2.75;1.40;;;23.30;43.30;;;;;;5001814;28;20038;-47
2022/07/09 10:17:25;;;;;;;2.90;1.45;;;23.30;42.20;;;;;;5002004;28;20610;-46
2022/07/09 10:19:55;;;;;;;2.63;1.25;;;23.30;43.40;;;;;;5002192;28;20083;-45
2022/07/09 10:22:22;;;;;;;2.40;1.42;;;23.30;43.20;;;;;;5001983;28;20018;-46
2022/07/09 10:24:51;;;;;;;2.97;1.60;;;23.30;43.00;;;;;;5000718;28;20472;-46
2022/07/09 10:27:17;;;;;;;3.15;1.20;;;23.40;43.30;;;;;;5002054;28;20033;-46
2022/07/09 10:29:54;;;;;;;3.10;1.33;;;23.40;42.30;;;;;;5002637;28;20030;-45
2022/07/09 10:32:32;;;;;;;2.65;1.30;;;23.40;43.20;;;;;;5002756;28;20600;-46
2022/07/09 10:35:01;;;;;;;2.90;1.50;;;23.40;44.00;;;;;;4995033;28;20038;-45
2022/07/09 10:37:42;;;;;;;4.55;1.63;;;23.40;44.00;;;;;;5001205;28;20033;-46
2022/07/09 10:40:11;;;;;;;1.95;1.00;;;23.40;43.00;;;;;;5027913;28;20485;-46
2022/07/09 10:42:38;;;;;;;2.65;1.33;;;23.40;42.50;;;;;;5004401;28;20564;-48
2022/07/09 10:45:24;;;;;;;2.92;1.17;;;23.40;45.10;;;;;;5003673;28;20025;-47
2022/07/09 10:47:56;;;;;;;2.22;1.17;;;23.40;42.80;;;;;;5004536;28;20282;-48
2022/07/09 10:50:23;;;;;;;2.33;1.33;;;23.40;41.90;;;;;;5005381;28;20655;-46
2022/07/09 10:52:50;;;;;;;3.85;1.67;;;23.40;43.30;;;;;;5005743;28;20053;-48
2022/07/09 10:55:20;;;;;;;3.70;1.50;;;23.40;44.40;;;;;;5005655;28;20109;-48
2022/07/09 10:57:46;;;;;;;2.75;1.40;;;23.50;44.50;;;;;;5005006;28;20820;-47
2022/07/09 11:00:16;;;;;;;2.05;1.20;;;23.50;43.80;;;;;;5005373;28;20037;-48
2022/07/09 11:02:58;;;;;;;2.90;1.20;;;23.50;44.40;;;;;;5005262;28;20030;-47
2022/07/09 11:05:26;;;;;;;1.92;1.05;;;23.50;44.40;;;;;;5005026;28;20103;-48
2022/07/09 11:07:55;;;;;;;2.85;1.40;;;23.60;44.40;;;;;;5005274;28;20030;-48
2022/07/09 11:10:21;;;;;;;2.50;1.15;;;23.60;43.80;;;;;;5017874;28;20033;-48
2022/07/09 11:12:49;;;;;;;2.97;1.38;;;23.60;42.80;;;;;;5023744;28;20034;-47
2022/07/09 11:15:20;;;;;;;2.08;1.20;;;23.60;42.60;;;;;;5005094;28;20819;-47
2022/07/09 11:17:56;;;;;;;2.38;1.17;;;23.70;43.30;;;;;;5004913;28;20119;-47
2022/07/09 11:20:22;;;;;;;2.17;1.17;;;23.70;41.80;;;;;;5004976;28;20044;-47
2022/07/09 11:22:48;;;;;;;3.35;1.20;;;23.70;42.60;;;;;;5001434;28;20022;-47
2022/07/09 11:25:18;;;;;;;2.90;1.15;;;23.70;42.90;;;;;;5004341;28;20109;-47
2022/07/09 11:27:44;;;;;;;3.40;1.13;;;23.70;43.10;;;;;;4981155;28;20057;-47
2022/07/09 11:30:14;;;;;;;2.83;1.20;;;23.70;41.70;;;;;;5002183;28;20030;-47
2022/07/09 11:32:44;;;;;;;3.08;1.25;;;23.80;42.80;;;;;;5003753;28;20022;-47
2022/07/09 11:35:11;;;;;;;3.10;1.40;;;23.80;43.20;;;;;;5003771;28;20025;-47
2022/07/09 11:37:37;;;;;;;3.53;1.20;;;23.80;43.60;;;;;;5004482;28;20037;-46
2022/07/09 11:40:04;;;;;;;3.53;1.75;;;23.80;43.40;;;;;;5004480;28;20038;-47
2022/07/09 11:42:30;;;;;;;2.95;1.15;;;23.90;43.20;;;;;;5004315;28;20117;-46
2022/07/09 11:45:00;;;;;;;2.80;1.27;;;23.80;42.00;;;;;;5003023;28;20319;-48
2022/07/09 11:47:34;;;;;;;4.38;1.75;;;23.80;42.60;;;;;;5003945;28;20084;-47
2022/07/09 11:50:18;;;;;;;3.47;1.30;;;23.80;41.60;;;;;;5004579;28;20025;-47
2022/07/09 11:52:49;;;;;;;2.08;1.10;;;23.80;40.60;;;;;;5003612;28;20018;-47
2022/07/09 11:55:19;;;;;;;3.58;1.10;;;23.80;41.50;;;;;;4997218;28;20036;-48
2022/07/09 11:57:56;;;;;;;2.65;1.13;;;23.80;41.70;;;;;;5001951;28;20424;-47
2022/07/09 12:00:23;;;;;;;2.53;1.20;;;23.80;42.80;;;;;;4118787;28;10000972;-47
2022/07/09 12:02:49;;;;;;;3.70;1.60;;;23.80;42.10;;;;;;5002057;28;20475;-47
2022/07/09 12:05:25;;;;;;;3.22;1.63;;;23.90;43.00;;;;;;5003472;28;20080;-47
2022/07/09 12:07:52;;;;;;;2.92;1.30;;;23.90;42.70;;;;;;5003040;28;20433;-47
2022/07/09 12:10:32;;;;;;;4.18;1.27;;;23.90;42.60;;;;;;5003845;28;20053;-47
2022/07/09 12:12:59;;;;;;;5.70;1.50;;;24.00;42.80;;;;;;5002230;28;20018;-48
2022/07/09 12:15:25;;;;;;;3.25;1.55;;;23.90;42.70;;;;;;4996553;28;20118;-47
2022/07/09 12:17:59;;;;;;;2.88;1.33;;;24.00;42.10;;;;;;4997429;28;20331;-46
2022/07/09 12:20:32;;;;;;;2.80;1.40;;;24.00;42.10;;;;;;5001973;28;20097;-48
2022/07/09 12:22:58;;;;;;;3.03;1.48;;;24.10;42.40;;;;;;5003544;28;20029;-47
2022/07/09 12:25:24;;;;;;;3.22;1.40;;;24.10;41.60;;;;;;5004065;28;20026;-47
2022/07/09 12:27:50;;;;;;;3.30;1.23;;;24.10;42.50;;;;;;5003828;28;20226;-48
2022/07/09 12:30:17;;;;;;;2.90;1.20;;;24.20;43.40;;;;;;5003853;28;20619;-46
2022/07/09 12:32:44;;;;;;;2.67;1.48;;;24.20;42.40;;;;;;5003974;28;20034;-46
2022/07/09 12:35:10;;;;;;;2.80;1.10;;;24.30;41.50;;;;;;5003952;28;20053;-46
2022/07/09 12:37:37;;;;;;;3.35;1.30;;;24.40;41.50;;;;;;5004187;28;20100;-46
2022/07/09 12:40:04;;;;;;;4.05;1.40;;;24.50;41.60;;;;;;5014188;28;20026;-46
2022/07/09 12:42:30;;;;;;;3.45;1.60;;;24.50;41.70;;;;;;5023374;28;20433;-46
2022/07/09 12:44:56;;;;;;;5.53;1.40;;;24.50;41.10;;;;;;5006674;28;20045;-47
2022/07/09 12:47:22;;;;;;;2.42;1.20;;;24.60;40.70;;;;;;5003860;28;20080;-46